createdAt,value
2019-04-04T00:02:25.528Z,43.75
2019-04-04T00:04:59.314Z,44.00
2019-04-04T00:07:33.046Z,44.00
2019-04-04T00:10:06.913Z,42.25
2019-04-04T00:12:40.642Z,47.00
2019-04-04T00:15:14.904Z,46.00
2019-04-04T00:17:49.250Z,46.75
2019-04-04T00:20:22.944Z,42.40
2019-04-04T00:22:56.734Z,42.25
2019-04-04T00:25:30.528Z,39.75
2019-04-04T00:28:04.227Z,42.50
2019-04-04T00:30:38.185Z,44.25
2019-04-04T00:33:12.105Z,42.00
2019-04-04T00:35:45.834Z,45.00
2019-04-04T00:38:19.553Z,42.25
2019-04-04T00:40:53.287Z,41.75
2019-04-04T00:43:27.345Z,43.00
2019-04-04T00:46:01.169Z,40.25
2019-04-04T00:48:34.971Z,39.40
2019-04-04T00:51:08.673Z,42.50
2019-04-04T00:53:42.981Z,37.25
2019-04-04T00:56:18.070Z,33.50
2019-04-04T00:58:52.577Z,43.75
2019-04-04T01:01:27.123Z,41.00
2019-04-04T01:04:01.018Z,32.50
2019-04-04T01:06:34.696Z,37.25
2019-04-04T01:09:13.228Z,40.00
2019-04-04T01:11:43.910Z,38.75
2019-04-04T01:14:17.602Z,35.00
2019-04-04T01:16:51.321Z,40.75
2019-04-04T01:19:25.030Z,28.75
2019-04-04T01:21:58.750Z,38.50
2019-04-04T01:24:32.469Z,34.00
2019-04-04T01:27:06.930Z,35.40
2019-04-04T01:29:41.451Z,33.75
2019-04-04T01:32:17.052Z,41.75
2019-04-04T01:34:52.185Z,35.25
2019-04-04T01:37:27.230Z,33.80
2019-04-04T01:40:02.264Z,32.25
2019-04-04T01:42:38.714Z,31.25
2019-04-04T01:45:13.106Z,31.40
2019-04-04T01:47:48.010Z,36.75
2019-04-04T01:50:23.276Z,37.50
2019-04-04T01:52:59.379Z,28.40
2019-04-04T01:55:35.094Z,29.20
2019-04-04T01:58:09.991Z,41.00
2019-04-04T02:00:46.000Z,39.50
2019-04-04T02:03:22.473Z,39.25
2019-04-04T02:05:57.855Z,36.00
2019-04-04T02:08:31.679Z,28.50
2019-04-04T02:11:06.002Z,34.50
2019-04-04T02:13:40.891Z,32.75
2019-04-04T02:16:16.892Z,40.75
2019-04-04T02:18:53.580Z,37.25
2019-04-04T02:21:28.463Z,32.50
2019-04-04T02:24:02.066Z,34.20
2019-04-04T02:26:36.154Z,35.75
2019-04-04T02:29:11.150Z,36.20
2019-04-04T02:31:45.446Z,35.80
2019-04-04T02:34:19.154Z,44.50
2019-04-04T02:36:52.890Z,38.25
2019-04-04T02:39:26.604Z,31.75
2019-04-04T02:42:00.387Z,38.00
2019-04-04T02:44:34.110Z,35.75
2019-04-04T02:47:08.069Z,38.00
2019-04-04T02:49:41.783Z,40.75
2019-04-04T02:52:15.550Z,26.20
2019-04-04T02:54:49.617Z,34.00
2019-04-04T02:57:23.347Z,44.25
2019-04-04T02:59:57.071Z,35.50
2019-04-04T03:02:30.785Z,39.00
2019-04-04T03:05:05.057Z,46.00
2019-04-04T03:07:38.787Z,38.00
2019-04-04T03:10:16.540Z,43.00
2019-04-04T03:12:48.216Z,37.25
2019-04-04T03:15:21.926Z,40.00
2019-04-04T03:17:55.642Z,45.80
2019-04-04T03:20:29.352Z,39.50
2019-04-04T03:23:03.119Z,46.00
2019-04-04T03:25:36.891Z,41.00
2019-04-04T03:28:10.605Z,42.40
2019-04-04T03:30:52.627Z,38.50
2019-04-04T03:33:19.753Z,41.00
2019-04-04T03:35:53.822Z,43.75
2019-04-04T03:38:27.544Z,40.75
2019-04-04T03:41:01.252Z,36.50
2019-04-04T03:43:34.977Z,44.75
2019-04-04T03:46:08.693Z,40.50
2019-04-04T03:48:42.405Z,36.00
2019-04-04T03:51:16.132Z,36.75
2019-04-04T03:53:50.299Z,42.00
2019-04-04T03:56:24.093Z,38.50
2019-04-04T03:59:00.107Z,38.60
2019-04-04T04:01:33.332Z,47.00
2019-04-04T04:04:07.043Z,46.25
2019-04-04T04:06:42.068Z,46.50
2019-04-04T04:09:16.161Z,44.60
2019-04-04T04:11:49.869Z,32.40
2019-04-04T04:14:23.614Z,35.50
2019-04-04T04:16:57.408Z,40.50
2019-04-04T04:19:31.579Z,34.00
2019-04-04T04:22:05.437Z,37.75
2019-04-04T04:24:39.129Z,39.25
2019-04-04T04:27:15.387Z,40.75
2019-04-04T04:29:48.353Z,41.00
2019-04-04T04:32:22.800Z,41.75
2019-04-04T04:34:56.665Z,39.25
2019-04-04T04:37:30.409Z,42.00
2019-04-04T04:40:04.688Z,32.50
2019-04-04T04:42:38.431Z,32.25
2019-04-04T04:45:12.573Z,20.75
2019-04-04T04:47:46.535Z,25.50
2019-04-04T04:50:20.332Z,28.00
2019-04-04T04:52:54.060Z,25.20
2019-04-04T04:55:28.222Z,30.50
2019-04-04T04:58:02.076Z,26.20
2019-04-04T05:00:35.788Z,27.75
2019-04-04T05:03:09.499Z,21.75
2019-04-04T05:05:43.198Z,22.00
2019-04-04T05:08:16.926Z,24.00
2019-04-04T05:10:50.669Z,20.25
2019-04-04T05:13:25.040Z,25.75
2019-04-04T05:15:59.764Z,24.50
2019-04-04T05:18:33.474Z,25.50
2019-04-04T05:21:07.232Z,25.60
2019-04-04T05:23:40.944Z,31.50
2019-04-04T05:26:14.665Z,29.75
2019-04-04T05:28:48.464Z,30.00
2019-04-04T05:31:22.156Z,30.20
2019-04-04T05:33:58.863Z,32.50
2019-04-04T05:36:31.388Z,42.25
2019-04-04T05:39:06.974Z,36.80
2019-04-04T05:41:40.712Z,36.50
2019-04-04T05:44:14.417Z,32.75
2019-04-04T05:46:51.150Z,43.50
2019-04-04T05:49:23.662Z,29.50
2019-04-04T05:51:57.634Z,39.00
2019-04-04T05:54:31.359Z,40.25
2019-04-04T05:57:05.083Z,34.00
2019-04-04T05:59:38.815Z,42.75
2019-04-04T06:02:12.607Z,45.50
2019-04-04T06:04:46.328Z,39.40
2019-04-04T06:07:20.126Z,45.00
2019-04-04T06:09:53.803Z,40.50
2019-04-04T06:12:27.543Z,43.50
2019-04-04T06:15:01.700Z,40.60
2019-04-04T06:17:38.856Z,42.40
2019-04-04T06:20:10.894Z,40.50
2019-04-04T06:22:44.587Z,47.25
2019-04-04T06:25:18.309Z,46.40
2019-04-04T06:27:52.062Z,45.25
2019-04-04T06:30:25.775Z,45.50
2019-04-04T06:32:59.471Z,41.50
2019-04-04T06:35:34.033Z,41.25
2019-04-04T06:38:07.761Z,45.75
2019-04-04T06:40:41.550Z,39.75
2019-04-04T06:43:15.284Z,41.60
2019-04-04T06:45:48.985Z,42.75
2019-04-04T06:48:22.774Z,45.50
2019-04-04T06:50:56.505Z,40.60
2019-04-04T06:53:30.223Z,41.00
2019-04-04T06:56:03.978Z,50.25
2019-04-04T06:58:40.059Z,50.25
2019-04-04T07:01:13.149Z,49.75
2019-04-04T07:03:46.869Z,45.50
2019-04-04T07:06:20.666Z,45.50
2019-04-04T07:08:54.381Z,48.75
2019-04-04T07:11:28.105Z,46.25
2019-04-04T07:14:01.783Z,40.00
2019-04-04T07:16:36.941Z,55.75
2019-04-04T07:19:14.270Z,45.25
2019-04-04T07:21:46.496Z,41.00
2019-04-04T07:24:20.204Z,44.20
2019-04-04T07:26:53.918Z,46.75
2019-04-04T07:29:27.632Z,49.75
2019-04-04T07:32:01.349Z,49.20
2019-04-04T07:34:35.057Z,50.75
2019-04-04T07:37:08.760Z,53.00
2019-04-04T07:39:42.483Z,54.25
2019-04-04T07:42:16.335Z,50.40
2019-04-04T07:44:50.131Z,50.25
2019-04-04T07:47:23.843Z,49.00
2019-04-04T07:49:56.996Z,46.00
2019-04-04T07:52:32.768Z,50.00
2019-04-04T07:55:05.314Z,53.75
2019-04-04T07:57:38.493Z,51.25
2019-04-04T08:00:11.727Z,43.75
2019-04-04T08:02:44.894Z,43.00
2019-04-04T08:05:18.072Z,52.50
2019-04-04T08:07:51.234Z,47.25
2019-04-04T08:10:24.388Z,48.75
2019-04-04T08:12:57.561Z,48.60
2019-04-04T08:15:30.745Z,51.75
2019-04-04T08:18:03.915Z,47.00
2019-04-04T08:20:37.071Z,51.25
2019-04-04T08:23:10.239Z,53.00
2019-04-04T08:25:43.424Z,54.00
2019-04-04T08:28:16.614Z,49.00
2019-04-04T08:30:49.783Z,54.00
2019-04-04T08:33:23.533Z,57.00
2019-04-04T08:36:05.961Z,53.00
2019-04-04T08:38:32.735Z,57.25
2019-04-04T08:41:06.979Z,54.00
2019-04-04T08:43:40.709Z,61.25
2019-04-04T08:46:14.424Z,58.00
2019-04-04T08:48:48.131Z,61.00
2019-04-04T08:51:21.874Z,59.25
2019-04-04T08:53:55.590Z,54.50
2019-04-04T08:56:29.528Z,60.75
2019-04-04T08:59:03.241Z,58.75
2019-04-04T09:01:36.962Z,60.75
2019-04-04T09:04:10.670Z,57.00
2019-04-04T09:06:44.394Z,58.25
2019-04-04T09:09:18.116Z,54.25
2019-04-04T09:11:51.854Z,58.00
2019-04-04T09:14:25.589Z,55.50
2019-04-04T09:16:59.299Z,58.00
2019-04-04T09:19:33.023Z,59.25
2019-04-04T09:22:06.788Z,70.00
2019-04-04T09:24:42.155Z,61.50
2019-04-04T09:27:15.896Z,63.20
2019-04-04T09:29:49.599Z,60.00
2019-04-04T09:32:23.299Z,64.00
2019-04-04T09:34:57.040Z,55.75
2019-04-04T09:37:30.741Z,64.00
2019-04-04T09:40:05.808Z,60.25
2019-04-04T09:42:39.509Z,62.50
2019-04-04T09:45:13.261Z,52.75
2019-04-04T09:47:46.983Z,65.50
2019-04-04T09:50:20.674Z,61.75
2019-04-04T09:52:54.744Z,62.25
2019-04-04T09:55:28.501Z,63.50
2019-04-04T09:58:02.284Z,61.75
2019-04-04T10:00:36.005Z,63.00
2019-04-04T10:03:09.739Z,53.75
2019-04-04T10:05:43.484Z,55.00
2019-04-04T10:08:17.193Z,45.75
2019-04-04T10:10:50.914Z,58.50
2019-04-04T10:13:24.656Z,52.25
2019-04-04T10:15:58.388Z,52.00
2019-04-04T10:18:32.112Z,46.40
2019-04-04T10:21:11.586Z,55.75
2019-04-04T10:23:41.511Z,53.50
2019-04-04T10:26:15.219Z,62.40
2019-04-04T10:28:48.951Z,56.00
2019-04-04T10:31:22.654Z,55.00
2019-04-04T10:33:56.401Z,54.25
2019-04-04T10:36:30.115Z,52.40
2019-04-04T10:39:06.828Z,50.00
2019-04-04T10:41:41.001Z,53.75
2019-04-04T10:44:14.718Z,59.50
2019-04-04T10:46:48.427Z,53.00
2019-04-04T10:49:23.779Z,52.75
2019-04-04T10:51:57.525Z,49.00
2019-04-04T10:54:31.230Z,64.60
2019-04-04T10:57:04.963Z,59.25
2019-04-04T10:59:38.667Z,64.00
2019-04-04T11:02:12.419Z,56.40
2019-04-04T11:04:46.131Z,57.75
2019-04-04T11:07:19.841Z,60.75
2019-04-04T11:09:53.911Z,60.50
2019-04-04T11:12:27.650Z,62.50
2019-04-04T11:15:01.356Z,60.20
2019-04-04T11:17:36.712Z,54.75
2019-04-04T11:20:10.427Z,63.40
2019-04-04T11:22:44.136Z,60.50
2019-04-04T11:25:17.860Z,63.00
2019-04-04T11:27:51.575Z,60.00
2019-04-04T11:30:25.304Z,64.00
2019-04-04T11:32:59.006Z,59.00
2019-04-04T11:35:32.802Z,62.25
2019-04-04T11:38:06.496Z,65.00
2019-04-04T11:40:40.220Z,59.25
2019-04-04T11:43:13.934Z,68.25
2019-04-04T11:45:47.646Z,61.00
2019-04-04T11:48:21.358Z,63.20
2019-04-04T11:50:55.054Z,63.00
2019-04-04T11:53:28.782Z,58.50
2019-04-04T11:56:02.560Z,55.25
2019-04-04T11:58:36.315Z,57.60
2019-04-04T12:01:10.019Z,56.50
2019-04-04T12:03:43.727Z,59.60
2019-04-04T12:06:17.456Z,50.80
2019-04-04T12:08:51.176Z,51.00
2019-04-04T12:11:24.881Z,58.50
2019-04-04T12:13:58.608Z,54.40
2019-04-04T12:16:32.874Z,61.50
2019-04-04T12:19:06.712Z,60.20
2019-04-04T12:21:40.446Z,56.00
2019-04-04T12:24:14.163Z,54.50
2019-04-04T12:26:47.874Z,50.50
2019-04-04T12:29:21.605Z,56.40
2019-04-04T12:31:55.327Z,57.00
2019-04-04T12:34:29.010Z,58.00
2019-04-04T12:37:02.741Z,66.00
2019-04-04T12:39:36.453Z,44.75
2019-04-04T12:42:10.163Z,51.00
2019-04-04T12:44:43.883Z,52.40
2019-04-04T12:47:17.601Z,61.00
2019-04-04T12:49:51.319Z,50.50
2019-04-04T12:52:25.022Z,57.20
2019-04-04T12:54:59.317Z,48.00
2019-04-04T12:57:34.053Z,37.60
2019-04-04T13:00:08.436Z,42.50
2019-04-04T13:02:42.165Z,48.00
2019-04-04T13:05:15.906Z,38.00
2019-04-04T13:07:49.623Z,38.75
2019-04-04T13:10:32.830Z,41.75
2019-04-04T13:12:58.767Z,41.50
2019-04-04T13:15:32.492Z,36.25
2019-04-04T13:18:06.196Z,35.50
2019-04-04T13:20:39.902Z,33.40
2019-04-04T13:23:13.606Z,35.75
2019-04-04T13:25:47.324Z,38.25
2019-04-04T13:28:21.045Z,33.00
2019-04-04T13:30:54.748Z,35.00
2019-04-04T13:33:28.471Z,35.75
2019-04-04T13:36:02.172Z,30.50
2019-04-04T13:38:35.925Z,38.00
2019-04-04T13:41:21.381Z,31.25
2019-04-04T13:43:45.052Z,32.80
2019-04-04T13:46:18.753Z,41.25
2019-04-04T13:48:52.478Z,35.00
2019-04-04T13:51:26.174Z,27.50
2019-04-04T13:53:59.889Z,30.00
2019-04-04T13:56:33.599Z,25.25
2019-04-04T13:59:07.340Z,29.25
2019-04-04T14:01:42.965Z,30.00
2019-04-04T14:04:16.475Z,31.00
2019-04-04T14:06:50.186Z,27.00
2019-04-04T14:09:23.915Z,23.20
2019-04-04T14:11:57.628Z,21.50
2019-04-04T14:14:31.334Z,27.25
2019-04-04T14:17:05.061Z,24.20
2019-04-04T14:19:38.767Z,30.75
2019-04-04T14:22:12.493Z,26.50
2019-04-04T14:24:46.225Z,30.50
2019-04-04T14:27:19.952Z,28.00
2019-04-04T14:29:55.314Z,27.00
2019-04-04T14:32:29.273Z,29.50
2019-04-04T14:35:04.517Z,26.20
2019-04-04T14:37:38.230Z,21.75
2019-04-04T14:40:12.210Z,29.20
2019-04-04T14:42:45.938Z,28.00
2019-04-04T14:45:19.649Z,31.25
2019-04-04T14:47:53.349Z,26.25
2019-04-04T14:50:28.233Z,24.80
2019-04-04T14:53:02.151Z,27.25
2019-04-04T14:55:35.869Z,27.50
2019-04-04T14:58:09.581Z,28.25
2019-04-04T15:00:43.301Z,26.00
2019-04-04T15:03:17.019Z,29.20
2019-04-04T15:05:50.784Z,32.50
2019-04-04T15:08:24.515Z,32.75
2019-04-04T15:10:58.501Z,25.50
2019-04-04T15:13:32.210Z,27.00
2019-04-04T15:16:14.087Z,33.75
2019-04-04T15:18:47.787Z,33.25
2019-04-04T15:21:21.498Z,30.00
2019-04-04T15:23:55.221Z,29.25
2019-04-04T15:26:28.926Z,26.75
2019-04-04T15:29:02.646Z,32.00
2019-04-04T15:31:36.367Z,31.00
2019-04-04T15:34:10.076Z,32.25
2019-04-04T15:36:43.788Z,49.25
2019-04-04T15:39:17.575Z,37.25
2019-04-04T15:41:51.305Z,38.25
2019-04-04T15:44:25.002Z,37.75
2019-04-04T15:46:58.721Z,61.50
2019-04-04T15:49:32.515Z,37.00
2019-04-04T15:52:06.236Z,43.00
2019-04-04T15:54:39.970Z,32.25
2019-04-04T15:57:13.662Z,35.25
2019-04-04T15:59:47.367Z,33.60
2019-04-04T16:02:21.059Z,29.50
2019-04-04T16:04:54.776Z,31.75
2019-04-04T16:07:28.485Z,28.40
2019-04-04T16:10:02.850Z,30.50
2019-04-04T16:12:36.554Z,33.75
2019-04-04T16:15:10.294Z,34.00
2019-04-04T16:17:43.988Z,28.25
2019-04-04T16:20:17.783Z,26.75
2019-04-04T16:22:51.499Z,35.80
2019-04-04T16:25:25.222Z,32.75
2019-04-04T16:27:58.908Z,32.00
2019-04-04T16:30:32.644Z,26.75
2019-04-04T16:33:06.352Z,30.75
2019-04-04T16:35:40.071Z,29.50
2019-04-04T16:38:13.856Z,33.25
2019-04-04T16:40:47.576Z,30.20
2019-04-04T16:43:21.323Z,40.00
2019-04-04T16:45:55.049Z,36.25
2019-04-04T16:48:28.795Z,33.25
2019-04-04T16:51:02.504Z,30.80
2019-04-04T16:53:36.215Z,33.00
2019-04-04T16:56:09.935Z,36.75
2019-04-04T16:58:43.647Z,35.00
2019-04-04T17:01:17.376Z,38.20
2019-04-04T17:04:01.038Z,35.50
2019-04-04T17:06:26.539Z,37.00
2019-04-04T17:09:00.263Z,29.25
2019-04-04T17:11:33.972Z,44.75
2019-04-04T17:14:07.717Z,38.20
2019-04-04T17:16:41.421Z,42.75
2019-04-04T17:19:15.235Z,50.00
2019-04-04T17:21:48.965Z,39.25
2019-04-04T17:24:22.785Z,47.20
2019-04-04T17:26:57.616Z,75.50
2019-04-04T17:29:31.344Z,59.25
2019-04-04T17:32:05.273Z,54.50
2019-04-04T17:34:39.179Z,29.50
2019-04-04T17:37:12.928Z,47.25
2019-04-04T17:39:46.662Z,44.60
2019-04-04T17:42:29.047Z,39.50
2019-04-04T17:44:55.918Z,41.25
2019-04-04T17:47:29.682Z,39.00
2019-04-04T17:50:06.664Z,38.50
2019-04-04T17:52:40.437Z,42.50
2019-04-04T17:55:14.155Z,43.25
2019-04-04T17:57:47.903Z,48.75
2019-04-04T18:00:21.641Z,63.00
2019-04-04T18:02:55.446Z,41.75
2019-04-04T18:05:29.156Z,52.50
2019-04-04T18:08:02.926Z,36.60
2019-04-04T18:10:36.632Z,34.75
2019-04-04T18:13:10.352Z,41.75
2019-04-04T18:15:44.081Z,31.75
2019-04-04T18:18:17.823Z,39.75
2019-04-04T18:20:51.643Z,39.75
2019-04-04T18:23:25.305Z,43.25
2019-04-04T18:25:59.041Z,34.40
2019-04-04T18:28:32.796Z,38.00
2019-04-04T18:31:06.520Z,32.75
2019-04-04T18:33:40.252Z,34.25
2019-04-04T18:36:13.974Z,48.60
2019-04-04T18:38:47.711Z,40.00
2019-04-04T18:41:21.415Z,38.75
2019-04-04T18:43:55.158Z,40.00
2019-04-04T18:46:28.881Z,41.00
2019-04-04T18:49:02.645Z,39.50
2019-04-04T18:51:37.797Z,35.25
2019-04-04T18:54:12.297Z,35.80
2019-04-04T18:56:46.017Z,37.80
2019-04-04T18:59:19.905Z,43.00
2019-04-04T19:01:53.630Z,42.50
2019-04-04T19:04:28.003Z,36.75
2019-04-04T19:07:01.721Z,39.50
2019-04-04T19:09:35.456Z,42.75
2019-04-04T19:12:09.277Z,41.00
2019-04-04T19:14:42.997Z,40.00
2019-04-04T19:17:16.744Z,41.20
2019-04-04T19:19:50.459Z,34.75
2019-04-04T19:22:24.253Z,35.20
2019-04-04T19:24:57.977Z,35.50
2019-04-04T19:27:31.740Z,29.50
2019-04-04T19:30:06.902Z,29.50
2019-04-04T19:32:40.619Z,34.00
2019-04-04T19:35:14.394Z,36.00
2019-04-04T19:37:59.484Z,37.25
2019-04-04T19:40:23.582Z,36.60
2019-04-04T19:42:57.312Z,39.25
2019-04-04T19:45:31.040Z,44.00
2019-04-04T19:48:04.772Z,37.80
2019-04-04T19:50:39.259Z,38.00
2019-04-04T19:53:13.234Z,46.75
2019-04-04T19:55:47.077Z,36.75
2019-04-04T19:58:20.830Z,34.00
2019-04-04T20:00:54.566Z,44.75
2019-04-04T20:03:28.337Z,44.25
2019-04-04T20:06:02.139Z,39.25
2019-04-04T20:08:35.847Z,37.75
2019-04-04T20:11:09.663Z,36.20
2019-04-04T20:13:43.508Z,37.50
2019-04-04T20:16:17.310Z,32.20
2019-04-04T20:18:51.067Z,41.50
2019-04-04T20:21:24.750Z,40.50
2019-04-04T20:23:58.509Z,36.00
2019-04-04T20:26:32.241Z,49.75
2019-04-04T20:29:05.952Z,41.75
2019-04-04T20:31:39.749Z,47.40
2019-04-04T20:34:13.513Z,42.50
2019-04-04T20:36:47.361Z,50.50
2019-04-04T20:39:21.135Z,43.25
2019-04-04T20:41:54.861Z,42.00
2019-04-04T20:44:28.594Z,38.00
2019-04-04T20:47:02.348Z,37.75
2019-04-04T20:49:36.057Z,38.25
2019-04-04T20:52:09.761Z,34.25
2019-04-04T20:54:43.495Z,38.00
2019-04-04T20:57:17.230Z,40.60
2019-04-04T20:59:50.951Z,40.50
2019-04-04T21:02:24.744Z,40.00
2019-04-04T21:04:58.558Z,43.75
2019-04-04T21:07:32.385Z,36.75
2019-04-04T21:10:06.124Z,36.50
2019-04-04T21:12:39.840Z,36.50
2019-04-04T21:15:13.679Z,41.50
2019-04-04T21:17:47.474Z,43.00
2019-04-04T21:20:21.195Z,43.50
2019-04-04T21:22:54.923Z,37.20
2019-04-04T21:25:28.635Z,45.00
2019-04-04T21:28:02.368Z,44.75
2019-04-04T21:30:36.069Z,39.00
2019-04-04T21:33:09.795Z,41.80
2019-04-04T21:35:43.527Z,42.75
2019-04-04T21:38:17.237Z,42.25
2019-04-04T21:40:50.963Z,41.50
2019-04-04T21:43:24.665Z,38.50
2019-04-04T21:45:58.388Z,36.25
2019-04-04T21:48:32.125Z,33.25
2019-04-04T21:51:05.848Z,38.80
2019-04-04T21:53:39.546Z,36.50
2019-04-04T21:56:13.299Z,37.50
2019-04-04T21:58:47.002Z,39.00
2019-04-04T22:01:20.711Z,34.80
2019-04-04T22:03:54.446Z,45.00
2019-04-04T22:06:28.730Z,35.75
2019-04-04T22:09:02.777Z,38.50
2019-04-04T22:11:36.529Z,39.00
2019-04-04T22:14:21.164Z,44.25
2019-04-04T22:16:45.703Z,45.25
2019-04-04T22:19:19.458Z,39.25
2019-04-04T22:21:53.178Z,35.75
2019-04-04T22:24:26.943Z,40.75
2019-04-04T22:27:00.681Z,37.00
2019-04-04T22:29:34.435Z,36.50
2019-04-04T22:32:08.173Z,35.75
2019-04-04T22:34:41.925Z,33.00
2019-04-04T22:37:15.675Z,36.50
2019-04-04T22:39:49.429Z,38.75
2019-04-04T22:42:23.145Z,35.40
2019-04-04T22:44:56.900Z,33.50
2019-04-04T22:47:30.637Z,42.00
2019-04-04T22:50:06.028Z,34.75
2019-04-04T22:52:39.770Z,39.00
2019-04-04T22:55:13.519Z,39.75
2019-04-04T22:57:47.254Z,34.00
2019-04-04T23:00:21.032Z,37.25
2019-04-04T23:02:54.761Z,35.75
2019-04-04T23:05:28.507Z,34.50
2019-04-04T23:08:02.381Z,35.60
2019-04-04T23:10:36.232Z,38.00
2019-04-04T23:13:09.990Z,40.25
2019-04-04T23:15:43.732Z,37.50
2019-04-04T23:18:17.583Z,40.25
2019-04-04T23:20:51.366Z,39.50
2019-04-04T23:23:25.168Z,41.00
2019-04-04T23:25:58.929Z,41.50
2019-04-04T23:28:32.653Z,37.50
2019-04-04T23:31:06.436Z,41.50
2019-04-04T23:33:40.207Z,46.00
2019-04-04T23:36:13.958Z,41.50
2019-04-04T23:38:47.705Z,42.75
2019-04-04T23:41:22.355Z,42.25
2019-04-04T23:43:56.106Z,41.50
2019-04-04T23:46:29.853Z,45.00
2019-04-04T23:49:03.624Z,36.75
2019-04-04T23:51:37.442Z,46.50
2019-04-04T23:54:11.211Z,40.75
2019-04-04T23:56:44.966Z,40.00
2019-04-04T23:59:18.721Z,42.50
